Time;durP1;ratioP1;P1;durP2;ratioP2;P2;SDS_P1;SDS_P2;PMS_P1;PMS_P2;Temp;Humidity;BMP_temperature;BMP_pressure;BME280_temperature;BME280_humidity;BME280_pressure;Samples;Min_cycle;Max_cycle;Signal;HPM_P1;HPM_P2
2022/11/01 00:02:10;;;;;;;18.23;10.40;;;15.90;68.40;;;;;;6281700;22;20064;-78
2022/11/01 00:04:39;;;;;;;17.38;11.18;;;15.90;68.40;;;;;;6281157;22;20411;-78
2022/11/01 00:07:05;;;;;;;13.55;10.02;;;15.90;68.50;;;;;;6281379;22;20014;-79
2022/11/01 00:09:34;;;;;;;12.90;8.98;;;15.90;68.50;;;;;;6281636;22;20420;-79
2022/11/01 00:12:03;;;;;;;13.70;9.52;;;15.90;68.60;;;;;;6281468;22;19991;-79
2022/11/01 00:14:29;;;;;;;11.93;9.35;;;15.90;68.60;;;;;;6281510;22;19995;-79
2022/11/01 00:16:57;;;;;;;15.00;10.60;;;15.90;68.80;;;;;;6281390;22;20010;-79
2022/11/01 00:19:24;;;;;;;18.30;10.00;;;15.90;68.50;;;;;;6281622;22;20003;-79
2022/11/01 00:21:52;;;;;;;20.17;10.55;;;15.90;68.40;;;;;;6309050;22;19988;-79
2022/11/01 00:24:18;;;;;;;16.35;9.98;;;15.90;68.30;;;;;;6308970;22;20378;-79
2022/11/01 00:26:47;;;;;;;21.45;11.55;;;15.90;68.20;;;;;;6309111;22;20280;-79
2022/11/01 00:29:13;;;;;;;16.05;11.68;;;15.90;68.20;;;;;;6281443;22;20002;-79
2022/11/01 00:31:41;;;;;;;19.23;13.63;;;15.90;68.20;;;;;;6281259;22;19991;-79
2022/11/01 00:34:07;;;;;;;23.17;14.60;;;15.90;68.20;;;;;;6280989;22;20110;-79
2022/11/01 00:36:36;;;;;;;22.13;12.98;;;15.90;68.10;;;;;;6281144;22;20419;-79
2022/11/01 00:39:06;;;;;;;18.08;11.52;;;15.90;68.20;;;;;;6281327;22;20003;-80
2022/11/01 00:41:33;;;;;;;17.45;10.82;;;15.90;68.20;;;;;;6281406;22;19995;-79
2022/11/01 00:44:01;;;;;;;49.90;31.52;;;16.00;68.20;;;;;;6278324;22;20003;-79
2022/11/01 00:46:27;;;;;;;21.20;15.27;;;16.00;68.00;;;;;;6276213;22;20003;-79
2022/11/01 00:48:56;;;;;;;35.97;21.00;;;16.00;67.70;;;;;;6276194;22;19991;-79
2022/11/01 00:51:22;;;;;;;19.60;13.07;;;16.00;67.50;;;;;;6275771;22;19999;-79
2022/11/01 00:53:50;;;;;;;14.02;11.35;;;16.00;67.40;;;;;;6275635;22;20407;-80
2022/11/01 00:56:19;;;;;;;13.98;10.35;;;16.00;67.10;;;;;;6274542;22;19999;-79
2022/11/01 00:58:45;;;;;;;22.27;15.23;;;16.00;67.20;;;;;;6275277;22;20004;-80
2022/11/01 01:01:11;;;;;;;28.70;17.48;;;16.00;67.20;;;;;;6275351;22;20000;-79
2022/11/01 01:03:36;;;;;;;28.70;19.30;;;16.00;67.30;;;;;;6275982;22;20012;-79
2022/11/01 01:06:02;;;;;;;30.75;20.30;;;16.00;67.30;;;;;;6274911;22;20082;-80
2022/11/01 01:08:28;;;;;;;32.33;19.45;;;16.00;67.20;;;;;;6276006;22;20030;-79
2022/11/01 01:10:57;;;;;;;19.95;11.73;;;16.00;67.00;;;;;;6275983;22;20396;-79
2022/11/01 01:13:23;;;;;;;15.52;8.32;;;16.00;67.10;;;;;;6277163;22;20078;-79
2022/11/01 01:15:52;;;;;;;13.80;8.20;;;16.10;66.90;;;;;;6275621;22;20438;-79
2022/11/01 01:18:18;;;;;;;11.43;7.45;;;16.00;66.80;;;;;;6275919;22;20011;-79
2022/11/01 01:20:44;;;;;;;15.05;7.80;;;16.00;66.90;;;;;;6275557;22;20080;-79
2022/11/01 01:23:09;;;;;;;11.60;8.40;;;16.00;66.90;;;;;;6275892;22;19995;-79
2022/11/01 01:25:41;;;;;;;11.25;7.65;;;16.00;67.00;;;;;;6275832;22;20050;-79
2022/11/01 01:28:10;;;;;;;12.77;8.27;;;16.00;66.90;;;;;;6275927;22;20452;-79
2022/11/01 01:30:42;;;;;;;12.00;8.80;;;16.00;66.90;;;;;;6275712;22;20000;-79
2022/11/01 01:33:10;;;;;;;15.38;9.05;;;16.00;66.80;;;;;;6275710;22;20420;-79
2022/11/01 01:35:37;;;;;;;11.93;8.35;;;15.90;66.80;;;;;;6275455;22;19999;-79
2022/11/01 01:38:03;;;;;;;16.48;8.77;;;16.00;66.90;;;;;;6276887;22;20423;-80
2022/11/01 01:40:30;;;;;;;12.07;9.18;;;15.90;66.80;;;;;;6275669;22;19996;-79
2022/11/01 01:42:59;;;;;;;15.35;9.75;;;15.90;66.90;;;;;;6275551;22;20042;-79
2022/11/01 01:45:34;;;;;;;15.27;10.18;;;16.00;67.00;;;;;;6274802;22;20489;-79
2022/11/01 01:48:23;;;;;;;14.60;10.32;;;16.00;66.90;;;;;;6275191;22;20000;-79
2022/11/01 01:50:57;;;;;;;14.80;10.05;;;16.00;66.80;;;;;;6277254;22;20265;-79
2022/11/01 01:53:33;;;;;;;13.85;10.50;;;16.00;66.80;;;;;;6275831;22;19995;-79
2022/11/01 01:56:22;;;;;;;13.95;8.90;;;16.00;66.80;;;;;;6275590;22;20003;-79
2022/11/01 01:59:09;;;;;;;20.13;13.55;;;16.00;66.90;;;;;;6249812;22;20053;-79
2022/11/01 02:01:37;;;;;;;28.27;18.67;;;16.00;66.70;;;;;;6274960;22;19996;-79
2022/11/01 02:04:08;;;;;;;38.95;21.42;;;16.00;66.50;;;;;;6276915;22;19992;-78
2022/11/01 02:06:38;;;;;;;38.20;23.23;;;16.00;66.30;;;;;;6276994;22;20007;-79
2022/11/01 02:09:07;;;;;;;33.45;21.13;;;16.00;66.40;;;;;;6276958;22;19987;-79
2022/11/01 02:11:33;;;;;;;29.38;19.25;;;16.00;66.50;;;;;;6275299;22;20050;-78
2022/11/01 02:14:04;;;;;;;30.80;19.05;;;16.00;66.50;;;;;;6275231;22;20046;-79
2022/11/01 02:16:44;;;;;;;29.90;18.35;;;16.00;66.40;;;;;;6276803;22;19992;-78
2022/11/01 02:19:25;;;;;;;30.00;18.48;;;15.90;66.40;;;;;;6275217;22;20008;-78
2022/11/01 02:22:17;;;;;;;29.17;18.67;;;15.90;66.50;;;;;;6249613;22;19996;-79
2022/11/01 02:25:16;;;;;;;36.03;20.83;;;15.90;66.50;;;;;;6274827;22;20144;-78
2022/11/01 02:27:54;;;;;;;33.20;19.00;;;15.90;66.40;;;;;;6275138;22;20007;-78
2022/11/01 02:30:23;;;;;;;28.35;18.02;;;15.90;66.50;;;;;;6274811;22;20000;-79
2022/11/01 02:33:36;;;;;;;29.45;15.68;;;15.90;66.60;;;;;;6275028;22;20079;-78
2022/11/01 02:36:14;;;;;;;28.92;17.30;;;15.90;66.70;;;;;;6152962;23;20005;-79
2022/11/01 02:38:58;;;;;;;26.08;15.68;;;15.90;66.60;;;;;;6153115;23;20001;-79
2022/11/01 02:41:33;;;;;;;26.88;16.60;;;15.90;66.60;;;;;;6128421;23;20029;-78
2022/11/01 02:44:02;;;;;;;29.02;16.33;;;15.90;66.60;;;;;;6127802;23;20063;-78
2022/11/01 02:49:23;;;;;;;21.83;14.00;;;15.90;66.60;;;;;;6153163;23;20051;-79
2022/11/01 02:51:51;;;;;;;26.17;15.68;;;15.90;66.60;;;;;;6153059;23;20085;-79
2022/11/01 02:54:30;;;;;;;21.83;14.05;;;15.90;66.60;;;;;;6128093;23;19993;-79
2022/11/01 02:57:05;;;;;;;21.33;13.63;;;15.90;66.60;;;;;;6153850;23;20007;-78
2022/11/01 02:59:45;;;;;;;19.02;12.27;;;15.90;66.50;;;;;;6154983;23;20005;-78
2022/11/01 03:02:38;;;;;;;18.90;11.35;;;15.90;66.50;;;;;;6130131;23;20072;-78
2022/11/01 03:05:25;;;;;;;18.23;11.07;;;15.90;66.50;;;;;;6130137;23;19997;-79
2022/11/01 03:07:59;;;;;;;19.75;12.60;;;16.00;66.60;;;;;;6130347;23;20002;-79
2022/11/01 03:10:55;;;;;;;20.98;11.68;;;16.00;66.50;;;;;;6234884;22;19999;-79
2022/11/01 03:13:31;;;;;;;19.10;11.68;;;16.00;66.40;;;;;;6261262;22;19995;-79
2022/11/01 03:16:29;;;;;;;15.73;10.80;;;16.00;66.30;;;;;;6307987;22;20022;-78
2022/11/01 03:19:46;;;;;;;20.02;11.07;;;16.00;66.40;;;;;;6151439;22;20331;-80
2022/11/01 03:22:23;;;;;;;22.83;13.27;;;16.00;66.30;;;;;;6129782;23;20001;-78
2022/11/01 03:25:04;;;;;;;21.42;14.35;;;16.00;66.00;;;;;;6130048;23;20060;-78
2022/11/01 03:27:41;;;;;;;24.77;14.77;;;15.90;65.90;;;;;;6130086;23;19997;-78
2022/11/01 03:30:13;;;;;;;22.50;14.40;;;15.90;66.00;;;;;;6154758;23;20422;-78
2022/11/01 03:32:52;;;;;;;22.27;13.65;;;15.80;66.00;;;;;;6129721;23;20005;-79
2022/11/01 03:35:28;;;;;;;22.55;13.32;;;15.80;66.20;;;;;;6154691;23;20009;-78
2022/11/01 03:38:03;;;;;;;21.92;13.73;;;15.80;66.30;;;;;;6154768;23;20368;-79
2022/11/01 03:40:31;;;;;;;23.90;14.60;;;15.90;66.30;;;;;;6129949;23;20088;-78
2022/11/01 03:43:03;;;;;;;26.60;14.75;;;15.80;66.10;;;;;;6179056;23;20101;-79
2022/11/01 03:45:31;;;;;;;20.73;13.35;;;15.80;66.20;;;;;;6154237;23;20017;-79
2022/11/01 03:47:59;;;;;;;20.38;12.88;;;15.80;66.30;;;;;;6154544;23;20001;-78
2022/11/01 03:50:27;;;;;;;20.10;13.35;;;15.80;66.30;;;;;;6129481;23;20025;-79
2022/11/01 03:52:53;;;;;;;22.60;13.93;;;15.80;66.40;;;;;;6129811;23;20093;-78
2022/11/01 03:55:20;;;;;;;25.75;14.15;;;15.80;66.40;;;;;;6129727;23;20052;-79
2022/11/01 03:57:55;;;;;;;24.50;14.25;;;15.80;66.40;;;;;;6233333;22;20049;-78
2022/11/01 04:00:22;;;;;;;25.23;14.13;;;15.80;66.40;;;;;;6278190;22;19991;-79
2022/11/01 04:02:53;;;;;;;24.58;14.30;;;15.80;66.40;;;;;;6277512;22;20022;-79
2022/11/01 04:05:21;;;;;;;40.78;20.27;;;15.80;66.40;;;;;;6277783;22;20407;-78
2022/11/01 04:07:47;;;;;;;40.90;20.67;;;15.70;66.40;;;;;;6277694;22;19995;-78
2022/11/01 04:10:14;;;;;;;33.03;19.33;;;15.70;66.50;;;;;;6250864;22;20031;-78
2022/11/01 04:12:43;;;;;;;35.65;19.30;;;15.80;66.60;;;;;;6278414;22;20105;-78
2022/11/01 04:21:08;;;;;;;44.10;22.00;;;15.80;66.80;;;;;;6277437;22;20129;-81
2022/11/01 04:23:37;;;;;;;46.88;22.73;;;15.80;66.80;;;;;;6277565;22;19996;-79
2022/11/01 04:26:04;;;;;;;38.50;20.35;;;15.80;66.80;;;;;;6250492;22;20263;-79
2022/11/01 04:28:33;;;;;;;37.58;19.25;;;15.80;66.80;;;;;;6250233;22;20018;-78
2022/11/01 04:31:02;;;;;;;33.33;18.85;;;15.80;66.80;;;;;;6250637;22;20344;-79
2022/11/01 04:33:28;;;;;;;31.55;17.90;;;15.80;66.80;;;;;;6250560;22;20015;-79
2022/11/01 04:35:56;;;;;;;28.13;14.07;;;15.80;66.80;;;;;;6250098;22;19999;-79
2022/11/01 04:38:22;;;;;;;20.73;11.50;;;15.80;66.80;;;;;;6250149;22;20004;-79
2022/11/01 04:40:48;;;;;;;27.83;15.20;;;15.80;67.50;;;;;;6250576;22;19995;-78
2022/11/01 04:43:15;;;;;;;26.13;13.75;;;15.80;66.50;;;;;;6277277;22;20007;-79
2022/11/01 04:45:43;;;;;;;25.80;14.13;;;15.80;66.30;;;;;;6274307;22;20041;-79
2022/11/01 04:48:17;;;;;;;33.95;15.20;;;15.80;66.10;;;;;;6308487;22;20056;-80
2022/11/01 04:50:44;;;;;;;;;;;15.80;66.10;;;;;;6281586;22;19999;-78
2022/11/01 04:53:10;;;;;;;26.45;14.23;;;15.80;66.40;;;;;;6281323;22;20302;-79
2022/11/01 04:55:36;;;;;;;32.38;16.42;;;15.80;66.20;;;;;;6280957;22;20018;-79
2022/11/01 04:58:03;;;;;;;29.73;14.95;;;15.80;66.00;;;;;;6308087;22;20066;-78
2022/11/01 05:00:34;;;;;;;36.22;18.17;;;15.80;66.10;;;;;;6280363;22;19999;-78
2022/11/01 05:03:06;;;;;;;36.00;20.00;;;15.80;66.20;;;;;;6308032;22;20029;-80
2022/11/01 05:05:34;;;;;;;32.25;17.50;;;15.70;66.30;;;;;;6308411;22;19999;-78
2022/11/01 05:08:05;;;;;;;40.13;19.45;;;15.70;66.40;;;;;;6281031;22;19995;-78
2022/11/01 05:10:31;;;;;;;39.67;19.63;;;15.70;66.50;;;;;;6308454;22;20337;-78
2022/11/01 05:13:00;;;;;;;37.55;18.70;;;15.80;66.60;;;;;;6307945;22;20438;-79
2022/11/01 05:15:25;;;;;;;43.22;20.85;;;15.70;66.50;;;;;;6308127;22;20002;-79
2022/11/01 05:17:51;;;;;;;47.75;21.52;;;15.80;66.70;;;;;;6280406;22;20003;-79
2022/11/01 05:20:17;;;;;;;44.40;21.95;;;15.80;66.70;;;;;;6279972;22;19999;-79
2022/11/01 05:22:43;;;;;;;46.67;23.00;;;15.80;66.70;;;;;;6280853;22;20057;-78
2022/11/01 05:25:09;;;;;;;49.78;21.00;;;15.80;66.70;;;;;;6280935;22;20294;-78
2022/11/01 05:27:36;;;;;;;50.92;21.15;;;15.80;66.60;;;;;;6280874;22;20042;-78
2022/11/01 05:30:03;;;;;;;39.13;19.60;;;15.80;66.70;;;;;;6280744;22;19999;-78
2022/11/01 05:32:29;;;;;;;41.65;20.30;;;15.80;66.60;;;;;;6280488;22;20532;-79
2022/11/01 05:34:55;;;;;;;43.63;20.90;;;15.80;66.60;;;;;;6280412;22;19999;-78
2022/11/01 05:37:20;;;;;;;42.83;21.23;;;15.80;66.60;;;;;;6280633;22;20315;-78
2022/11/01 05:39:46;;;;;;;51.70;23.75;;;15.90;66.60;;;;;;6280297;22;19999;-78
2022/11/01 05:42:12;;;;;;;47.58;22.58;;;15.80;66.40;;;;;;6280637;22;20034;-78
2022/11/01 05:44:38;;;;;;;46.35;21.48;;;15.80;66.30;;;;;;6280061;22;20026;-79
2022/11/01 05:47:04;;;;;;;42.28;20.52;;;15.80;66.30;;;;;;6280597;22;19995;-79
2022/11/01 05:49:30;;;;;;;47.50;22.40;;;15.80;66.40;;;;;;6307942;22;19995;-79
2022/11/01 05:51:56;;;;;;;44.83;21.73;;;15.80;66.30;;;;;;6280353;22;20303;-79
2022/11/01 05:54:24;;;;;;;43.38;20.25;;;15.80;66.20;;;;;;6307767;22;19992;-78
2022/11/01 05:56:50;;;;;;;36.00;19.02;;;15.80;66.20;;;;;;6280132;22;19999;-81
2022/11/01 05:59:16;;;;;;;40.60;18.83;;;15.80;66.30;;;;;;6280460;22;20003;-79
2022/11/01 06:01:42;;;;;;;35.15;17.25;;;15.80;66.30;;;;;;6280639;22;20277;-78
2022/11/01 06:04:11;;;;;;;28.52;16.35;;;15.80;66.30;;;;;;6280500;22;20078;-79
2022/11/01 06:06:39;;;;;;;24.92;14.23;;;15.80;66.50;;;;;;6280381;22;20453;-79
2022/11/01 06:09:05;;;;;;;18.52;12.00;;;15.80;66.60;;;;;;6280234;22;19999;-79
2022/11/01 06:11:31;;;;;;;18.63;12.73;;;15.80;66.60;;;;;;6280445;22;20005;-79
2022/11/01 06:13:58;;;;;;;21.35;13.73;;;15.80;66.70;;;;;;6280541;22;20074;-78
2022/11/01 06:16:27;;;;;;;29.70;13.85;;;15.80;66.70;;;;;;6279917;22;20048;-79
2022/11/01 06:18:53;;;;;;;25.85;14.77;;;15.80;67.50;;;;;;6307513;22;20133;-79
2022/11/01 06:21:21;;;;;;;26.50;14.77;;;15.80;66.70;;;;;;6280493;22;20361;-80
2022/11/01 06:23:51;;;;;;;24.00;14.15;;;15.80;66.80;;;;;;6280439;22;19999;-78
2022/11/01 06:26:18;;;;;;;27.20;15.15;;;15.80;66.80;;;;;;6280419;22;19998;-78
2022/11/01 06:28:45;;;;;;;20.88;13.98;;;15.80;66.80;;;;;;6307771;22;19995;-79
2022/11/01 06:31:11;;;;;;;25.15;15.75;;;15.80;66.90;;;;;;6280812;22;20311;-78
2022/11/01 06:33:39;;;;;;;23.30;15.25;;;15.80;66.90;;;;;;6282283;22;19998;-79
2022/11/01 06:36:06;;;;;;;26.08;15.75;;;15.80;66.90;;;;;;6282304;22;20007;-79
2022/11/01 06:38:32;;;;;;;25.90;14.23;;;15.80;67.00;;;;;;6282460;22;20362;-79
2022/11/01 06:40:58;;;;;;;23.35;15.13;;;15.90;67.10;;;;;;6282474;22;19995;-79
2022/11/01 06:43:23;;;;;;;28.75;16.05;;;15.90;67.80;;;;;;6282271;22;20007;-78
2022/11/01 06:45:49;;;;;;;25.42;16.75;;;15.90;67.10;;;;;;6281536;22;20015;-78
2022/11/01 06:48:15;;;;;;;30.45;18.70;;;15.90;67.10;;;;;;6282329;22;20006;-78
2022/11/01 06:50:41;;;;;;;28.80;17.17;;;15.90;67.00;;;;;;6282244;22;20003;-79
2022/11/01 06:53:08;;;;;;;30.33;18.08;;;16.00;67.00;;;;;;6282241;22;19992;-79
2022/11/01 06:55:33;;;;;;;28.83;17.45;;;16.00;67.00;;;;;;6282167;22;19999;-79
2022/11/01 06:58:02;;;;;;;37.95;20.63;;;16.00;67.00;;;;;;6281826;22;20004;-79
2022/11/01 07:00:29;;;;;;;33.30;21.52;;;16.00;66.90;;;;;;6282469;22;20005;-79
2022/11/01 07:03:06;;;;;;;41.15;22.10;;;16.00;66.70;;;;;;6282065;22;20001;-78
2022/11/01 07:05:34;;;;;;;40.83;22.52;;;16.00;66.70;;;;;;6281836;22;20048;-79
2022/11/01 07:07:59;;;;;;;32.53;21.48;;;16.00;66.50;;;;;;6282268;22;20411;-79
2022/11/01 07:10:27;;;;;;;37.03;21.63;;;16.00;66.50;;;;;;6281895;22;20076;-80
2022/11/01 07:13:00;;;;;;;35.90;21.63;;;16.00;66.40;;;;;;6282251;22;20475;-78
2022/11/01 07:15:29;;;;;;;39.40;20.60;;;16.00;66.60;;;;;;6282220;22;19995;-79
2022/11/01 07:17:56;;;;;;;36.85;20.02;;;16.00;66.70;;;;;;6282073;22;20233;-80
2022/11/01 07:20:29;;;;;;;35.47;20.77;;;16.00;66.70;;;;;;6282089;22;20036;-79
2022/11/01 07:23:01;;;;;;;31.08;17.77;;;16.00;66.60;;;;;;6281421;22;20472;-79
2022/11/01 07:25:31;;;;;;;26.85;16.85;;;16.00;66.50;;;;;;6282102;22;20003;-79
2022/11/01 07:27:58;;;;;;;24.40;15.85;;;16.00;66.70;;;;;;6281944;22;19997;-79
2022/11/01 07:30:25;;;;;;;25.40;16.10;;;16.00;66.90;;;;;;6282010;22;20400;-79
2022/11/01 07:32:55;;;;;;;27.75;15.88;;;16.10;67.00;;;;;;6281874;22;20422;-80
2022/11/01 07:35:22;;;;;;;24.83;16.40;;;16.10;66.90;;;;;;6281566;22;19995;-79
2022/11/01 07:37:50;;;;;;;22.10;15.02;;;16.20;67.00;;;;;;6281968;22;20003;-79
2022/11/01 07:40:17;;;;;;;24.08;14.63;;;16.20;66.70;;;;;;6308946;22;20395;-78
2022/11/01 07:42:44;;;;;;;23.65;14.50;;;16.20;66.60;;;;;;6308775;22;19991;-78
2022/11/01 07:45:11;;;;;;;26.75;13.45;;;16.20;66.60;;;;;;6281080;22;20435;-78
2022/11/01 07:47:37;;;;;;;23.48;14.95;;;16.20;66.30;;;;;;6281977;22;19999;-79
2022/11/01 07:50:04;;;;;;;26.88;15.75;;;16.20;66.40;;;;;;6281911;22;20003;-79
2022/11/01 07:52:30;;;;;;;21.17;12.90;;;16.20;66.20;;;;;;6309210;22;19995;-78
2022/11/01 07:54:57;;;;;;;21.13;13.25;;;16.20;66.30;;;;;;6281603;22;20403;-79
2022/11/01 07:57:25;;;;;;;24.40;13.00;;;16.30;66.50;;;;;;6281935;22;19999;-78
2022/11/01 07:59:51;;;;;;;25.33;15.30;;;16.30;66.50;;;;;;6282081;22;20026;-79
2022/11/01 08:02:17;;;;;;;23.35;14.63;;;16.30;66.20;;;;;;6281652;22;20031;-79
2022/11/01 08:04:44;;;;;;;23.45;14.80;;;16.40;66.30;;;;;;6281707;22;19997;-79
2022/11/01 08:07:10;;;;;;;20.55;13.00;;;16.40;66.20;;;;;;6281768;22;20026;-80
2022/11/01 08:09:36;;;;;;;17.00;11.38;;;16.40;66.00;;;;;;6281641;22;19991;-79
2022/11/01 08:12:02;;;;;;;20.73;12.82;;;16.50;66.00;;;;;;6281817;22;20049;-79
2022/11/01 08:14:27;;;;;;;20.60;12.80;;;16.60;65.90;;;;;;6281565;22;19995;-78
2022/11/01 08:17:00;;;;;;;23.08;12.77;;;16.60;65.50;;;;;;6308514;22;19999;-79
2022/11/01 08:19:26;;;;;;;19.50;12.60;;;16.60;65.30;;;;;;6308942;22;19999;-80
2022/11/01 08:21:55;;;;;;;20.85;11.57;;;16.60;65.00;;;;;;6281038;22;20482;-81
2022/11/01 08:24:21;;;;;;;20.20;12.95;;;16.70;65.10;;;;;;6281481;22;19991;-79
2022/11/01 08:26:47;;;;;;;16.98;11.13;;;16.70;64.70;;;;;;6281176;22;19999;-79
2022/11/01 08:29:13;;;;;;;18.13;11.00;;;16.60;64.40;;;;;;6281450;22;20044;-78
2022/11/01 08:31:42;;;;;;;16.65;10.38;;;16.70;64.50;;;;;;6280540;22;20001;-79
2022/11/01 08:34:08;;;;;;;20.25;12.00;;;16.70;64.30;;;;;;6308295;22;19991;-79
2022/11/01 08:36:34;;;;;;;21.75;13.32;;;16.70;64.30;;;;;;6281326;22;20082;-78
2022/11/01 08:39:01;;;;;;;19.98;12.02;;;16.70;64.30;;;;;;6281287;22;20125;-79
2022/11/01 08:41:30;;;;;;;24.73;12.52;;;16.70;64.30;;;;;;6281378;22;19995;-79
2022/11/01 08:44:01;;;;;;;24.08;13.95;;;16.70;64.40;;;;;;6280810;22;20090;-79
2022/11/01 08:46:27;;;;;;;22.33;12.57;;;16.70;64.00;;;;;;6281244;22;20137;-79
2022/11/01 08:48:58;;;;;;;21.85;13.07;;;16.70;64.20;;;;;;6308456;22;20022;-79
2022/11/01 08:51:26;;;;;;;28.90;14.70;;;16.70;64.10;;;;;;6281276;22;19991;-79
2022/11/01 08:53:56;;;;;;;25.52;14.75;;;16.70;63.90;;;;;;6308558;22;19992;-79
2022/11/01 08:56:26;;;;;;;24.20;14.07;;;16.60;63.70;;;;;;6281125;22;20399;-79
2022/11/01 08:58:53;;;;;;;28.73;15.82;;;16.60;63.60;;;;;;6281134;22;20346;-79
2022/11/01 09:01:20;;;;;;;25.15;17.15;;;16.60;63.70;;;;;;6308680;22;20070;-79
2022/11/01 09:03:46;;;;;;;30.85;17.83;;;16.60;64.50;;;;;;6308323;22;20051;-78
2022/11/01 09:06:16;;;;;;;26.77;17.10;;;16.60;64.00;;;;;;6281099;22;20084;-78
2022/11/01 09:08:42;;;;;;;30.85;18.92;;;16.60;63.90;;;;;;6281072;22;20306;-79
2022/11/01 09:11:10;;;;;;;29.75;17.60;;;16.60;63.80;;;;;;6280965;22;19995;-79
2022/11/01 09:13:39;;;;;;;32.80;18.25;;;16.60;63.80;;;;;;6280731;22;19995;-78
2022/11/01 09:16:06;;;;;;;32.15;16.42;;;16.60;64.10;;;;;;6280470;22;20059;-79
2022/11/01 09:18:32;;;;;;;26.50;15.98;;;16.70;64.50;;;;;;6280515;22;20303;-79
2022/11/01 09:20:58;;;;;;;28.08;16.70;;;16.70;64.60;;;;;;6280887;22;19995;-79
2022/11/01 09:23:25;;;;;;;30.77;17.58;;;16.80;64.50;;;;;;6280802;22;20421;-78
2022/11/01 09:26:03;;;;;;;30.17;19.17;;;16.90;64.10;;;;;;6280656;22;20007;-79
2022/11/01 09:28:30;;;;;;;28.25;17.30;;;17.00;63.30;;;;;;6307845;22;20411;-81
2022/11/01 09:30:56;;;;;;;29.38;18.38;;;17.00;62.90;;;;;;6280529;22;20411;-78
2022/11/01 09:33:23;;;;;;;25.38;15.32;;;17.10;62.50;;;;;;6308041;22;20276;-79
2022/11/01 09:35:53;;;;;;;26.83;17.85;;;17.10;62.70;;;;;;6280529;22;19999;-79
2022/11/01 09:38:18;;;;;;;29.10;17.42;;;17.10;62.30;;;;;;6280668;22;20515;-79
2022/11/01 09:41:05;;;;;;;32.17;16.85;;;17.20;62.00;;;;;;6280829;22;20037;-79
2022/11/01 09:43:34;;;;;;;26.60;17.23;;;17.30;62.00;;;;;;6308079;22;20078;-79
2022/11/01 09:46:03;;;;;;;26.52;16.58;;;17.30;62.00;;;;;;6280005;22;20513;-79
2022/11/01 09:48:33;;;;;;;27.10;16.75;;;17.40;62.00;;;;;;6307551;22;19992;-79
2022/11/01 09:51:12;;;;;;;29.05;17.48;;;17.50;61.60;;;;;;6280544;22;20049;-78
2022/11/01 09:53:39;;;;;;;27.67;16.77;;;17.60;61.40;;;;;;6280634;22;19995;-79
2022/11/01 09:56:41;;;;;;;29.45;17.42;;;17.70;61.00;;;;;;6307886;22;20010;-80
2022/11/01 09:59:18;;;;;;;24.50;16.52;;;17.70;60.90;;;;;;6274631;22;20003;-79
2022/11/01 10:02:14;;;;;;;26.20;16.33;;;17.70;60.50;;;;;;6307629;22;20481;-79
2022/11/01 10:04:50;;;;;;;28.20;14.48;;;17.70;60.40;;;;;;6279083;22;20303;-79
2022/11/01 10:07:36;;;;;;;24.52;15.07;;;17.80;60.80;;;;;;6279002;22;20078;-78
2022/11/01 10:10:28;;;;;;;23.60;14.45;;;17.80;61.00;;;;;;6279897;22;19999;-79
2022/11/01 10:13:31;;;;;;;24.83;14.48;;;17.90;61.00;;;;;;6279822;22;19995;-80
2022/11/01 10:16:15;;;;;;;31.60;14.43;;;18.00;60.80;;;;;;6278961;22;20049;-81
2022/11/01 10:18:41;;;;;;;28.30;16.40;;;18.00;60.50;;;;;;6279029;22;20017;-80
2022/11/01 10:21:14;;;;;;;29.25;17.42;;;18.10;60.10;;;;;;6279582;22;19999;-79
2022/11/01 10:23:47;;;;;;;26.20;15.93;;;18.10;59.70;;;;;;6279856;22;20046;-79
2022/11/01 10:26:22;;;;;;;34.30;19.80;;;18.10;60.00;;;;;;6279908;22;20313;-79
2022/11/01 10:28:51;;;;;;;34.25;18.48;;;18.10;60.00;;;;;;6280225;22;20026;-88
2022/11/01 10:31:23;;;;;;;32.15;19.10;;;18.10;60.00;;;;;;6281784;22;20002;-89
2022/11/01 10:34:03;;;;;;;30.40;19.63;;;18.00;59.80;;;;;;6280959;22;20433;-81
2022/11/01 10:36:34;;;;;;;35.38;19.38;;;18.00;60.00;;;;;;6279753;22;20002;-80
2022/11/01 10:39:37;;;;;;;31.08;18.40;;;18.00;60.00;;;;;;6279824;22;20007;-80
2022/11/01 10:42:14;;;;;;;35.97;19.77;;;18.00;60.10;;;;;;6279756;22;20074;-81
2022/11/01 10:44:54;;;;;;;32.05;19.30;;;18.00;60.00;;;;;;6306800;22;20015;-80
2022/11/01 10:47:23;;;;;;;30.30;17.58;;;18.00;60.10;;;;;;6279874;22;20285;-81
2022/11/01 10:50:16;;;;;;;26.92;16.88;;;18.00;60.30;;;;;;6279830;22;19999;-78
2022/11/01 10:52:48;;;;;;;30.38;17.70;;;18.10;60.70;;;;;;6280104;22;19999;-81
2022/11/01 10:55:24;;;;;;;28.80;18.25;;;18.10;60.50;;;;;;6254411;22;20076;-81
2022/11/01 10:58:16;;;;;;;32.90;19.83;;;18.20;60.50;;;;;;6280268;22;20003;-81
2022/11/01 11:00:46;;;;;;;32.85;18.45;;;18.30;60.00;;;;;;6259582;22;19999;-82
2022/11/01 11:03:23;;;;;;;27.60;17.50;;;18.30;59.80;;;;;;6279959;22;20110;-81
2022/11/01 11:05:51;;;;;;;27.52;17.05;;;18.30;59.80;;;;;;6280224;22;19991;-81
2022/11/01 11:08:20;;;;;;;28.00;17.73;;;18.30;60.00;;;;;;6280075;22;20017;-80
2022/11/01 11:10:50;;;;;;;31.52;19.10;;;18.40;59.90;;;;;;6279802;22;20339;-81
2022/11/01 11:13:23;;;;;;;29.13;17.27;;;18.40;59.70;;;;;;6279510;22;20082;-81
2022/11/01 11:15:59;;;;;;;26.95;17.40;;;18.50;59.80;;;;;;6280056;22;20427;-81
2022/11/01 11:18:30;;;;;;;26.77;15.93;;;18.50;59.60;;;;;;6281317;22;20095;-81
2022/11/01 11:21:04;;;;;;;31.13;16.17;;;18.60;59.70;;;;;;6282105;22;19996;-81
2022/11/01 11:23:34;;;;;;;26.30;16.60;;;18.70;59.80;;;;;;6308753;22;19998;-83
2022/11/01 11:26:03;;;;;;;28.02;16.13;;;18.70;59.40;;;;;;6280642;22;20048;-81
2022/11/01 11:28:37;;;;;;;23.70;16.58;;;18.80;59.40;;;;;;6280964;22;20007;-82
2022/11/01 11:31:21;;;;;;;26.80;17.30;;;18.90;59.10;;;;;;6280261;22;20004;-81
2022/11/01 11:33:52;;;;;;;24.35;16.05;;;18.90;58.90;;;;;;6280265;22;19995;-80
2022/11/01 11:36:30;;;;;;;27.05;15.48;;;19.00;58.80;;;;;;6279606;22;20006;-80
2022/11/01 11:38:57;;;;;;;27.73;15.63;;;19.00;58.80;;;;;;6280955;22;20313;-82
2022/11/01 11:41:38;;;;;;;30.90;16.05;;;19.20;58.70;;;;;;6280896;22;20399;-80
2022/11/01 11:44:33;;;;;;;22.17;13.52;;;19.20;58.50;;;;;;6280398;22;20308;-81
2022/11/01 11:46:59;;;;;;;26.80;15.95;;;19.30;58.80;;;;;;6280733;22;20057;-79
2022/11/01 11:49:27;;;;;;;20.25;13.57;;;19.30;58.90;;;;;;6307734;22;19999;-76
2022/11/01 11:51:53;;;;;;;24.63;14.80;;;19.40;58.50;;;;;;6255073;22;20004;-82
2022/11/01 11:54:36;;;;;;;27.60;16.05;;;19.50;58.10;;;;;;6280707;22;19991;-81
2022/11/01 11:57:25;;;;;;;25.47;16.00;;;19.50;58.30;;;;;;6281144;22;20302;-81
2022/11/01 12:00:04;;;;;;;21.38;14.35;;;19.60;58.00;;;;;;6280462;22;20261;-81
2022/11/01 12:02:36;;;;;;;21.00;15.10;;;19.70;58.20;;;;;;6280243;22;20307;-80
2022/11/01 12:05:05;;;;;;;28.42;15.50;;;19.80;58.20;;;;;;6280583;22;20086;-80
2022/11/01 12:07:33;;;;;;;24.10;15.68;;;19.80;57.40;;;;;;6307507;22;20002;-82
2022/11/01 12:10:02;;;;;;;25.58;15.93;;;19.90;57.20;;;;;;6280196;22;19995;-82
2022/11/01 12:12:31;;;;;;;25.50;16.75;;;19.90;57.00;;;;;;6280587;22;19995;-80
2022/11/01 12:14:58;;;;;;;28.27;17.73;;;19.90;56.80;;;;;;6281417;22;19995;-81
2022/11/01 12:17:32;;;;;;;27.75;15.48;;;19.80;56.50;;;;;;6281008;22;20007;-79
2022/11/01 12:20:08;;;;;;;;;;;19.80;56.70;;;;;;6281160;22;20009;-80
2022/11/01 12:22:37;;;;;;;27.75;15.80;;;19.80;57.50;;;;;;6280499;22;19895;-80
2022/11/01 12:25:13;;;;;;;23.33;14.38;;;19.70;56.60;;;;;;6282065;22;20003;-89
2022/11/01 12:27:46;;;;;;;24.17;15.68;;;19.70;56.90;;;;;;6282317;22;20399;-81
2022/11/01 12:30:20;;;;;;;32.05;17.13;;;19.60;56.60;;;;;;6281331;22;20411;-82
2022/11/01 12:32:52;;;;;;;29.48;16.05;;;19.50;56.90;;;;;;6280196;22;20403;-82
2022/11/01 12:35:32;;;;;;;30.20;16.65;;;19.50;57.20;;;;;;6275517;22;19995;-80
2022/11/01 12:38:26;;;;;;;25.17;15.88;;;19.40;57.30;;;;;;6281928;22;20008;-80
2022/11/01 12:40:54;;;;;;;24.33;15.63;;;19.30;57.50;;;;;;6280143;22;20416;-77
2022/11/01 12:43:47;;;;;;;23.77;14.73;;;19.30;57.60;;;;;;6280154;22;20000;-75
2022/11/01 12:46:26;;;;;;;25.02;16.30;;;19.30;57.60;;;;;;6249151;22;20424;-78
2022/11/01 12:48:58;;;;;;;23.80;15.55;;;19.20;57.70;;;;;;6249718;22;20050;-81
2022/11/01 12:51:32;;;;;;;35.63;17.13;;;19.20;57.80;;;;;;6247132;22;20253;-78
2022/11/01 12:54:10;;;;;;;25.98;15.82;;;19.20;57.90;;;;;;6248797;22;20110;-79
2022/11/01 12:56:41;;;;;;;27.42;16.08;;;19.10;57.90;;;;;;6248987;22;20354;-81
2022/11/01 12:59:11;;;;;;;20.23;14.30;;;19.10;58.00;;;;;;6248901;22;20311;-79